sensor_id;sensor_type;location;lat;lon;timestamp;P1;durP1;ratioP1;P2;durP2;ratioP2
75016;SDS011;63577;39.766;2.720;2023-09-18T00:02:23;34.80;;;6.30;;
75016;SDS011;63577;39.766;2.720;2023-09-18T00:04:49;36.00;;;6.70;;
75016;SDS011;63577;39.766;2.720;2023-09-18T00:07:14;37.40;;;6.00;;
75016;SDS011;63577;39.766;2.720;2023-09-18T00:09:40;36.40;;;6.20;;
75016;SDS011;63577;39.766;2.720;2023-09-18T00:12:05;31.70;;;4.80;;
75016;SDS011;63577;39.766;2.720;2023-09-18T00:14:31;28.10;;;4.60;;
75016;SDS011;63577;39.766;2.720;2023-09-18T00:16:57;27.50;;;3.80;;
75016;SDS011;63577;39.766;2.720;2023-09-18T00:19:22;20.80;;;3.80;;
75016;SDS011;63577;39.766;2.720;2023-09-18T00:21:49;25.80;;;3.60;;
75016;SDS011;63577;39.766;2.720;2023-09-18T00:24:14;23.10;;;4.10;;
75016;SDS011;63577;39.766;2.720;2023-09-18T00:26:40;19.80;;;4.00;;
75016;SDS011;63577;39.766;2.720;2023-09-18T00:29:05;23.10;;;3.70;;
75016;SDS011;63577;39.766;2.720;2023-09-18T00:31:30;17.60;;;3.60;;
75016;SDS011;63577;39.766;2.720;2023-09-18T00:33:56;26.90;;;3.70;;
75016;SDS011;63577;39.766;2.720;2023-09-18T00:36:21;21.70;;;3.40;;
75016;SDS011;63577;39.766;2.720;2023-09-18T00:38:46;21.10;;;3.60;;
75016;SDS011;63577;39.766;2.720;2023-09-18T00:41:12;20.40;;;2.90;;
75016;SDS011;63577;39.766;2.720;2023-09-18T00:43:37;15.00;;;2.50;;
75016;SDS011;63577;39.766;2.720;2023-09-18T00:46:03;16.90;;;3.30;;
75016;SDS011;63577;39.766;2.720;2023-09-18T00:48:29;17.80;;;2.80;;
75016;SDS011;63577;39.766;2.720;2023-09-18T00:50:54;17.30;;;2.70;;
75016;SDS011;63577;39.766;2.720;2023-09-18T00:53:22;18.40;;;3.30;;
75016;SDS011;63577;39.766;2.720;2023-09-18T00:55:49;24.80;;;3.70;;
75016;SDS011;63577;39.766;2.720;2023-09-18T00:58:15;20.70;;;2.70;;
75016;SDS011;63577;39.766;2.720;2023-09-18T01:00:41;19.70;;;3.20;;
75016;SDS011;63577;39.766;2.720;2023-09-18T01:03:07;17.10;;;2.70;;
75016;SDS011;63577;39.766;2.720;2023-09-18T01:05:32;20.00;;;3.10;;
75016;SDS011;63577;39.766;2.720;2023-09-18T01:07:58;16.60;;;2.80;;
75016;SDS011;63577;39.766;2.720;2023-09-18T01:10:24;19.40;;;2.90;;
75016;SDS011;63577;39.766;2.720;2023-09-18T01:13:04;21.40;;;2.80;;
75016;SDS011;63577;39.766;2.720;2023-09-18T01:15:32;18.60;;;2.70;;
75016;SDS011;63577;39.766;2.720;2023-09-18T01:17:59;18.00;;;2.70;;
75016;SDS011;63577;39.766;2.720;2023-09-18T01:20:25;15.60;;;2.60;;
75016;SDS011;63577;39.766;2.720;2023-09-18T01:22:50;16.00;;;2.70;;
75016;SDS011;63577;39.766;2.720;2023-09-18T01:25:16;17.00;;;3.40;;
75016;SDS011;63577;39.766;2.720;2023-09-18T01:27:41;18.20;;;2.70;;
75016;SDS011;63577;39.766;2.720;2023-09-18T01:30:07;17.30;;;2.50;;
75016;SDS011;63577;39.766;2.720;2023-09-18T01:32:32;13.70;;;2.20;;
75016;SDS011;63577;39.766;2.720;2023-09-18T01:35:00;14.30;;;2.00;;
75016;SDS011;63577;39.766;2.720;2023-09-18T01:37:26;16.30;;;2.20;;
75016;SDS011;63577;39.766;2.720;2023-09-18T01:39:52;12.30;;;1.90;;
75016;SDS011;63577;39.766;2.720;2023-09-18T01:42:18;13.00;;;2.20;;
75016;SDS011;63577;39.766;2.720;2023-09-18T01:44:44;16.80;;;2.00;;
75016;SDS011;63577;39.766;2.720;2023-09-18T01:47:11;15.20;;;2.50;;
75016;SDS011;63577;39.766;2.720;2023-09-18T01:49:38;13.80;;;2.30;;
75016;SDS011;63577;39.766;2.720;2023-09-18T01:52:04;10.00;;;2.30;;
75016;SDS011;63577;39.766;2.720;2023-09-18T01:54:30;14.20;;;2.00;;
75016;SDS011;63577;39.766;2.720;2023-09-18T01:56:56;16.10;;;2.40;;
75016;SDS011;63577;39.766;2.720;2023-09-18T01:59:21;16.50;;;2.40;;
75016;SDS011;63577;39.766;2.720;2023-09-18T02:01:47;19.90;;;2.90;;
75016;SDS011;63577;39.766;2.720;2023-09-18T02:04:13;20.10;;;3.10;;
75016;SDS011;63577;39.766;2.720;2023-09-18T02:06:38;25.00;;;3.90;;
75016;SDS011;63577;39.766;2.720;2023-09-18T02:09:05;26.90;;;3.90;;
75016;SDS011;63577;39.766;2.720;2023-09-18T02:11:30;29.50;;;4.80;;
75016;SDS011;63577;39.766;2.720;2023-09-18T02:13:55;33.70;;;4.90;;
75016;SDS011;63577;39.766;2.720;2023-09-18T02:16:21;31.40;;;5.00;;
75016;SDS011;63577;39.766;2.720;2023-09-18T02:18:49;35.20;;;5.40;;
75016;SDS011;63577;39.766;2.720;2023-09-18T02:21:20;29.70;;;4.90;;
75016;SDS011;63577;39.766;2.720;2023-09-18T02:23:49;37.10;;;6.20;;
75016;SDS011;63577;39.766;2.720;2023-09-18T02:26:16;37.00;;;5.60;;
75016;SDS011;63577;39.766;2.720;2023-09-18T02:28:41;36.90;;;5.80;;
75016;SDS011;63577;39.766;2.720;2023-09-18T02:31:07;32.60;;;5.40;;
75016;SDS011;63577;39.766;2.720;2023-09-18T02:33:33;35.90;;;5.60;;
75016;SDS011;63577;39.766;2.720;2023-09-18T02:35:58;30.20;;;5.10;;
75016;SDS011;63577;39.766;2.720;2023-09-18T02:38:24;31.80;;;5.70;;
75016;SDS011;63577;39.766;2.720;2023-09-18T02:40:50;34.10;;;5.20;;
75016;SDS011;63577;39.766;2.720;2023-09-18T02:43:15;35.40;;;5.80;;
75016;SDS011;63577;39.766;2.720;2023-09-18T02:45:41;30.60;;;5.50;;
75016;SDS011;63577;39.766;2.720;2023-09-18T02:48:06;38.20;;;5.60;;
75016;SDS011;63577;39.766;2.720;2023-09-18T02:50:31;34.50;;;5.00;;
75016;SDS011;63577;39.766;2.720;2023-09-18T02:52:57;33.10;;;6.00;;
75016;SDS011;63577;39.766;2.720;2023-09-18T02:55:22;35.80;;;5.00;;
75016;SDS011;63577;39.766;2.720;2023-09-18T02:57:47;37.00;;;6.20;;
75016;SDS011;63577;39.766;2.720;2023-09-18T03:00:13;31.90;;;5.50;;
75016;SDS011;63577;39.766;2.720;2023-09-18T03:02:38;35.70;;;5.50;;
75016;SDS011;63577;39.766;2.720;2023-09-18T03:05:04;31.00;;;5.80;;
75016;SDS011;63577;39.766;2.720;2023-09-18T03:07:29;30.60;;;5.90;;
75016;SDS011;63577;39.766;2.720;2023-09-18T03:09:55;32.50;;;5.80;;
75016;SDS011;63577;39.766;2.720;2023-09-18T03:12:20;36.80;;;5.40;;
75016;SDS011;63577;39.766;2.720;2023-09-18T03:14:47;34.60;;;6.00;;
75016;SDS011;63577;39.766;2.720;2023-09-18T03:17:13;32.40;;;5.50;;
75016;SDS011;63577;39.766;2.720;2023-09-18T03:19:38;38.50;;;6.40;;
75016;SDS011;63577;39.766;2.720;2023-09-18T03:22:04;32.10;;;5.30;;
75016;SDS011;63577;39.766;2.720;2023-09-18T03:24:29;26.30;;;5.50;;
75016;SDS011;63577;39.766;2.720;2023-09-18T03:26:55;32.40;;;5.80;;
75016;SDS011;63577;39.766;2.720;2023-09-18T03:29:20;26.60;;;6.20;;
75016;SDS011;63577;39.766;2.720;2023-09-18T03:31:45;34.50;;;5.70;;
75016;SDS011;63577;39.766;2.720;2023-09-18T03:34:11;28.40;;;5.60;;
75016;SDS011;63577;39.766;2.720;2023-09-18T03:36:36;37.00;;;6.10;;
75016;SDS011;63577;39.766;2.720;2023-09-18T03:39:02;35.50;;;6.70;;
75016;SDS011;63577;39.766;2.720;2023-09-18T03:41:29;32.00;;;6.00;;
75016;SDS011;63577;39.766;2.720;2023-09-18T03:46:24;30.60;;;4.90;;
75016;SDS011;63577;39.766;2.720;2023-09-18T03:48:49;28.70;;;6.00;;
75016;SDS011;63577;39.766;2.720;2023-09-18T03:51:15;34.10;;;7.00;;
75016;SDS011;63577;39.766;2.720;2023-09-18T03:53:41;32.90;;;6.60;;
75016;SDS011;63577;39.766;2.720;2023-09-18T03:56:06;29.40;;;6.90;;
75016;SDS011;63577;39.766;2.720;2023-09-18T03:58:31;28.50;;;5.90;;
75016;SDS011;63577;39.766;2.720;2023-09-18T04:00:57;29.20;;;6.30;;
75016;SDS011;63577;39.766;2.720;2023-09-18T04:03:22;25.70;;;5.30;;
75016;SDS011;63577;39.766;2.720;2023-09-18T04:05:48;28.30;;;5.10;;
75016;SDS011;63577;39.766;2.720;2023-09-18T04:08:13;28.70;;;4.90;;
75016;SDS011;63577;39.766;2.720;2023-09-18T04:10:38;25.40;;;4.70;;
75016;SDS011;63577;39.766;2.720;2023-09-18T04:13:04;26.60;;;4.70;;
75016;SDS011;63577;39.766;2.720;2023-09-18T04:15:29;24.60;;;4.90;;
75016;SDS011;63577;39.766;2.720;2023-09-18T04:17:57;16.20;;;3.60;;
75016;SDS011;63577;39.766;2.720;2023-09-18T04:20:23;22.90;;;4.30;;
75016;SDS011;63577;39.766;2.720;2023-09-18T04:23:16;23.20;;;4.20;;
75016;SDS011;63577;39.766;2.720;2023-09-18T04:25:34;19.20;;;3.20;;
75016;SDS011;63577;39.766;2.720;2023-09-18T04:27:59;24.50;;;3.60;;
75016;SDS011;63577;39.766;2.720;2023-09-18T04:30:24;21.90;;;3.20;;
75016;SDS011;63577;39.766;2.720;2023-09-18T04:32:50;18.10;;;3.50;;
75016;SDS011;63577;39.766;2.720;2023-09-18T04:35:17;19.00;;;3.60;;
75016;SDS011;63577;39.766;2.720;2023-09-18T04:37:42;20.20;;;3.40;;
75016;SDS011;63577;39.766;2.720;2023-09-18T04:40:08;24.20;;;4.20;;
75016;SDS011;63577;39.766;2.720;2023-09-18T04:42:38;20.80;;;3.70;;
75016;SDS011;63577;39.766;2.720;2023-09-18T04:45:04;20.10;;;4.10;;
75016;SDS011;63577;39.766;2.720;2023-09-18T04:47:30;16.30;;;3.80;;
75016;SDS011;63577;39.766;2.720;2023-09-18T04:49:55;26.50;;;4.50;;
75016;SDS011;63577;39.766;2.720;2023-09-18T04:52:21;17.90;;;4.00;;
75016;SDS011;63577;39.766;2.720;2023-09-18T04:54:46;25.30;;;4.20;;
75016;SDS011;63577;39.766;2.720;2023-09-18T04:57:11;22.60;;;3.80;;
75016;SDS011;63577;39.766;2.720;2023-09-18T04:59:37;22.80;;;4.50;;
75016;SDS011;63577;39.766;2.720;2023-09-18T05:02:02;16.20;;;3.40;;
75016;SDS011;63577;39.766;2.720;2023-09-18T05:04:28;18.70;;;3.50;;
75016;SDS011;63577;39.766;2.720;2023-09-18T05:06:53;21.00;;;3.50;;
75016;SDS011;63577;39.766;2.720;2023-09-18T05:09:19;18.50;;;3.80;;
75016;SDS011;63577;39.766;2.720;2023-09-18T05:11:44;18.70;;;3.30;;
75016;SDS011;63577;39.766;2.720;2023-09-18T05:14:10;16.10;;;2.90;;
75016;SDS011;63577;39.766;2.720;2023-09-18T05:16:35;16.90;;;3.40;;
75016;SDS011;63577;39.766;2.720;2023-09-18T05:19:00;17.10;;;3.10;;
75016;SDS011;63577;39.766;2.720;2023-09-18T05:21:26;16.80;;;3.50;;
75016;SDS011;63577;39.766;2.720;2023-09-18T05:23:52;13.00;;;2.80;;
75016;SDS011;63577;39.766;2.720;2023-09-18T05:26:18;12.20;;;2.40;;
75016;SDS011;63577;39.766;2.720;2023-09-18T05:28:44;13.20;;;2.70;;
75016;SDS011;63577;39.766;2.720;2023-09-18T05:31:09;13.50;;;2.40;;
75016;SDS011;63577;39.766;2.720;2023-09-18T05:33:34;11.40;;;2.50;;
75016;SDS011;63577;39.766;2.720;2023-09-18T05:36:00;12.90;;;2.30;;
75016;SDS011;63577;39.766;2.720;2023-09-18T05:38:25;15.00;;;2.40;;
75016;SDS011;63577;39.766;2.720;2023-09-18T05:40:50;11.10;;;2.60;;
75016;SDS011;63577;39.766;2.720;2023-09-18T05:43:16;12.60;;;2.50;;
75016;SDS011;63577;39.766;2.720;2023-09-18T05:45:43;13.70;;;2.60;;
75016;SDS011;63577;39.766;2.720;2023-09-18T05:48:08;14.50;;;2.90;;
75016;SDS011;63577;39.766;2.720;2023-09-18T05:50:34;12.80;;;2.70;;
75016;SDS011;63577;39.766;2.720;2023-09-18T05:53:03;15.00;;;2.30;;
75016;SDS011;63577;39.766;2.720;2023-09-18T05:55:32;12.60;;;3.00;;
75016;SDS011;63577;39.766;2.720;2023-09-18T05:57:57;11.40;;;2.70;;
75016;SDS011;63577;39.766;2.720;2023-09-18T06:00:23;12.30;;;2.60;;
75016;SDS011;63577;39.766;2.720;2023-09-18T06:02:49;9.90;;;2.40;;
75016;SDS011;63577;39.766;2.720;2023-09-18T06:05:16;11.30;;;2.70;;
75016;SDS011;63577;39.766;2.720;2023-09-18T06:07:42;11.30;;;2.40;;
75016;SDS011;63577;39.766;2.720;2023-09-18T06:10:09;13.90;;;2.80;;
75016;SDS011;63577;39.766;2.720;2023-09-18T06:12:37;7.00;;;2.00;;
75016;SDS011;63577;39.766;2.720;2023-09-18T06:15:03;11.80;;;2.20;;
75016;SDS011;63577;39.766;2.720;2023-09-18T06:17:29;8.60;;;1.90;;
75016;SDS011;63577;39.766;2.720;2023-09-18T06:19:54;10.70;;;2.10;;
75016;SDS011;63577;39.766;2.720;2023-09-18T06:22:20;10.30;;;1.90;;
75016;SDS011;63577;39.766;2.720;2023-09-18T06:24:46;10.50;;;2.10;;
75016;SDS011;63577;39.766;2.720;2023-09-18T06:27:11;9.40;;;1.90;;
75016;SDS011;63577;39.766;2.720;2023-09-18T06:29:37;8.10;;;1.80;;
75016;SDS011;63577;39.766;2.720;2023-09-18T06:32:06;9.90;;;2.10;;
75016;SDS011;63577;39.766;2.720;2023-09-18T06:34:32;10.70;;;2.10;;
75016;SDS011;63577;39.766;2.720;2023-09-18T06:36:58;8.00;;;2.00;;
75016;SDS011;63577;39.766;2.720;2023-09-18T06:39:23;9.80;;;1.80;;
75016;SDS011;63577;39.766;2.720;2023-09-18T06:41:51;8.40;;;2.00;;
75016;SDS011;63577;39.766;2.720;2023-09-18T06:44:16;11.70;;;2.00;;
75016;SDS011;63577;39.766;2.720;2023-09-18T06:46:41;5.80;;;1.30;;
75016;SDS011;63577;39.766;2.720;2023-09-18T06:49:07;4.80;;;1.10;;
75016;SDS011;63577;39.766;2.720;2023-09-18T06:51:32;6.80;;;1.00;;
75016;SDS011;63577;39.766;2.720;2023-09-18T06:53:57;6.00;;;0.90;;
75016;SDS011;63577;39.766;2.720;2023-09-18T06:56:23;6.90;;;1.20;;
75016;SDS011;63577;39.766;2.720;2023-09-18T06:58:49;8.20;;;1.80;;
75016;SDS011;63577;39.766;2.720;2023-09-18T07:01:17;12.40;;;1.90;;
75016;SDS011;63577;39.766;2.720;2023-09-18T07:03:43;8.30;;;2.00;;
75016;SDS011;63577;39.766;2.720;2023-09-18T07:06:09;10.20;;;1.70;;
75016;SDS011;63577;39.766;2.720;2023-09-18T07:08:35;10.20;;;2.00;;
75016;SDS011;63577;39.766;2.720;2023-09-18T07:11:01;8.10;;;1.70;;
75016;SDS011;63577;39.766;2.720;2023-09-18T07:13:26;10.40;;;2.10;;
75016;SDS011;63577;39.766;2.720;2023-09-18T07:15:52;10.30;;;2.30;;
75016;SDS011;63577;39.766;2.720;2023-09-18T07:18:17;9.00;;;1.80;;
75016;SDS011;63577;39.766;2.720;2023-09-18T07:20:46;11.20;;;2.00;;
75016;SDS011;63577;39.766;2.720;2023-09-18T07:23:11;7.00;;;1.90;;
75016;SDS011;63577;39.766;2.720;2023-09-18T07:25:37;9.40;;;2.20;;
75016;SDS011;63577;39.766;2.720;2023-09-18T07:28:08;9.20;;;2.50;;
75016;SDS011;63577;39.766;2.720;2023-09-18T07:30:33;10.60;;;2.20;;
75016;SDS011;63577;39.766;2.720;2023-09-18T07:32:59;9.60;;;2.00;;
75016;SDS011;63577;39.766;2.720;2023-09-18T07:35:25;7.60;;;2.10;;
75016;SDS011;63577;39.766;2.720;2023-09-18T07:37:51;10.90;;;2.60;;
75016;SDS011;63577;39.766;2.720;2023-09-18T07:40:17;9.20;;;2.40;;
75016;SDS011;63577;39.766;2.720;2023-09-18T07:42:42;9.20;;;2.00;;
75016;SDS011;63577;39.766;2.720;2023-09-18T07:45:11;10.00;;;1.80;;
75016;SDS011;63577;39.766;2.720;2023-09-18T07:47:36;8.10;;;1.90;;
75016;SDS011;63577;39.766;2.720;2023-09-18T07:50:02;9.00;;;1.90;;
75016;SDS011;63577;39.766;2.720;2023-09-18T07:52:28;10.80;;;1.90;;
75016;SDS011;63577;39.766;2.720;2023-09-18T07:54:54;7.40;;;2.10;;
75016;SDS011;63577;39.766;2.720;2023-09-18T07:57:19;11.30;;;2.30;;
75016;SDS011;63577;39.766;2.720;2023-09-18T07:59:45;11.00;;;2.50;;
75016;SDS011;63577;39.766;2.720;2023-09-18T08:02:11;10.40;;;2.50;;
75016;SDS011;63577;39.766;2.720;2023-09-18T08:04:37;9.70;;;2.50;;
75016;SDS011;63577;39.766;2.720;2023-09-18T08:07:02;9.10;;;2.10;;
75016;SDS011;63577;39.766;2.720;2023-09-18T08:09:30;8.50;;;2.20;;
75016;SDS011;63577;39.766;2.720;2023-09-18T08:11:56;9.70;;;2.00;;
75016;SDS011;63577;39.766;2.720;2023-09-18T08:14:22;9.30;;;2.00;;
75016;SDS011;63577;39.766;2.720;2023-09-18T08:16:47;9.50;;;2.20;;
75016;SDS011;63577;39.766;2.720;2023-09-18T08:19:15;9.90;;;2.40;;
75016;SDS011;63577;39.766;2.720;2023-09-18T08:21:42;9.80;;;2.10;;
75016;SDS011;63577;39.766;2.720;2023-09-18T08:24:07;9.00;;;2.00;;
75016;SDS011;63577;39.766;2.720;2023-09-18T08:26:33;8.70;;;2.30;;
75016;SDS011;63577;39.766;2.720;2023-09-18T08:28:58;9.90;;;2.30;;
75016;SDS011;63577;39.766;2.720;2023-09-18T08:31:23;14.00;;;2.40;;
75016;SDS011;63577;39.766;2.720;2023-09-18T08:33:49;10.40;;;3.00;;
75016;SDS011;63577;39.766;2.720;2023-09-18T08:36:16;10.40;;;3.70;;
75016;SDS011;63577;39.766;2.720;2023-09-18T08:38:41;10.30;;;3.20;;
75016;SDS011;63577;39.766;2.720;2023-09-18T08:41:08;9.30;;;2.80;;
75016;SDS011;63577;39.766;2.720;2023-09-18T08:43:34;9.80;;;2.70;;
75016;SDS011;63577;39.766;2.720;2023-09-18T08:46:00;9.90;;;3.00;;
75016;SDS011;63577;39.766;2.720;2023-09-18T08:48:29;10.30;;;3.80;;
75016;SDS011;63577;39.766;2.720;2023-09-18T08:51:03;30.50;;;12.90;;
75016;SDS011;63577;39.766;2.720;2023-09-18T08:55:55;46.80;;;24.30;;
75016;SDS011;63577;39.766;2.720;2023-09-18T08:58:24;36.00;;;19.90;;
75016;SDS011;63577;39.766;2.720;2023-09-18T09:00:50;48.00;;;25.80;;
75016;SDS011;63577;39.766;2.720;2023-09-18T09:03:15;51.10;;;29.90;;
75016;SDS011;63577;39.766;2.720;2023-09-18T09:05:40;33.00;;;21.30;;
75016;SDS011;63577;39.766;2.720;2023-09-18T09:08:06;42.40;;;25.50;;
75016;SDS011;63577;39.766;2.720;2023-09-18T09:10:31;34.50;;;17.80;;
75016;SDS011;63577;39.766;2.720;2023-09-18T09:12:57;22.90;;;10.90;;
75016;SDS011;63577;39.766;2.720;2023-09-18T09:15:23;33.40;;;19.10;;
75016;SDS011;63577;39.766;2.720;2023-09-18T09:17:51;31.50;;;16.60;;
75016;SDS011;63577;39.766;2.720;2023-09-18T09:20:16;28.10;;;16.40;;
75016;SDS011;63577;39.766;2.720;2023-09-18T09:22:43;36.30;;;19.90;;
75016;SDS011;63577;39.766;2.720;2023-09-18T09:25:22;28.60;;;14.10;;
75016;SDS011;63577;39.766;2.720;2023-09-18T09:27:49;11.50;;;4.30;;
75016;SDS011;63577;39.766;2.720;2023-09-18T09:30:22;12.60;;;4.70;;
75016;SDS011;63577;39.766;2.720;2023-09-18T09:32:48;11.60;;;4.50;;
75016;SDS011;63577;39.766;2.720;2023-09-18T09:37:47;7.60;;;2.30;;
75016;SDS011;63577;39.766;2.720;2023-09-18T09:40:12;9.00;;;2.70;;
75016;SDS011;63577;39.766;2.720;2023-09-18T09:42:42;9.90;;;3.20;;
75016;SDS011;63577;39.766;2.720;2023-09-18T09:45:13;8.50;;;2.50;;
75016;SDS011;63577;39.766;2.720;2023-09-18T09:47:40;8.20;;;2.30;;
75016;SDS011;63577;39.766;2.720;2023-09-18T09:50:09;9.10;;;2.80;;
75016;SDS011;63577;39.766;2.720;2023-09-18T09:52:35;11.40;;;2.90;;
75016;SDS011;63577;39.766;2.720;2023-09-18T09:55:03;8.10;;;2.70;;
75016;SDS011;63577;39.766;2.720;2023-09-18T09:57:50;9.70;;;2.50;;
75016;SDS011;63577;39.766;2.720;2023-09-18T10:00:16;8.40;;;2.40;;
75016;SDS011;63577;39.766;2.720;2023-09-18T10:02:53;9.90;;;2.20;;
75016;SDS011;63577;39.766;2.720;2023-09-18T10:05:19;8.30;;;1.90;;
75016;SDS011;63577;39.766;2.720;2023-09-18T10:07:44;9.70;;;2.60;;
75016;SDS011;63577;39.766;2.720;2023-09-18T10:10:10;11.20;;;2.70;;
75016;SDS011;63577;39.766;2.720;2023-09-18T10:12:36;8.40;;;2.20;;
75016;SDS011;63577;39.766;2.720;2023-09-18T10:15:02;8.90;;;2.50;;
75016;SDS011;63577;39.766;2.720;2023-09-18T10:17:28;9.20;;;2.50;;
75016;SDS011;63577;39.766;2.720;2023-09-18T10:20:02;7.20;;;3.10;;
75016;SDS011;63577;39.766;2.720;2023-09-18T10:22:41;9.00;;;2.50;;
75016;SDS011;63577;39.766;2.720;2023-09-18T10:25:17;8.90;;;2.10;;
75016;SDS011;63577;39.766;2.720;2023-09-18T10:27:50;9.20;;;2.20;;
75016;SDS011;63577;39.766;2.720;2023-09-18T10:30:18;10.20;;;2.60;;
75016;SDS011;63577;39.766;2.720;2023-09-18T10:32:44;8.10;;;2.30;;
75016;SDS011;63577;39.766;2.720;2023-09-18T10:35:13;8.50;;;1.80;;
75016;SDS011;63577;39.766;2.720;2023-09-18T10:37:39;9.20;;;2.30;;
75016;SDS011;63577;39.766;2.720;2023-09-18T10:40:07;7.30;;;2.60;;
75016;SDS011;63577;39.766;2.720;2023-09-18T10:42:37;12.60;;;2.80;;
75016;SDS011;63577;39.766;2.720;2023-09-18T10:45:03;10.40;;;2.40;;
75016;SDS011;63577;39.766;2.720;2023-09-18T10:47:32;8.80;;;2.60;;
75016;SDS011;63577;39.766;2.720;2023-09-18T10:49:58;11.40;;;2.50;;
75016;SDS011;63577;39.766;2.720;2023-09-18T10:52:23;10.30;;;2.40;;
75016;SDS011;63577;39.766;2.720;2023-09-18T10:54:49;8.90;;;3.00;;
75016;SDS011;63577;39.766;2.720;2023-09-18T10:57:14;10.10;;;2.20;;
75016;SDS011;63577;39.766;2.720;2023-09-18T10:59:46;9.00;;;2.40;;
75016;SDS011;63577;39.766;2.720;2023-09-18T11:02:15;8.40;;;2.30;;
75016;SDS011;63577;39.766;2.720;2023-09-18T11:04:44;7.10;;;2.10;;
75016;SDS011;63577;39.766;2.720;2023-09-18T11:07:23;8.00;;;2.20;;
75016;SDS011;63577;39.766;2.720;2023-09-18T11:09:50;9.30;;;2.50;;
75016;SDS011;63577;39.766;2.720;2023-09-18T11:12:16;9.30;;;2.90;;
75016;SDS011;63577;39.766;2.720;2023-09-18T11:20:05;10.50;;;3.10;;
75016;SDS011;63577;39.766;2.720;2023-09-18T11:22:45;11.50;;;3.00;;
75016;SDS011;63577;39.766;2.720;2023-09-18T11:28:14;10.40;;;2.80;;
75016;SDS011;63577;39.766;2.720;2023-09-18T11:30:52;9.60;;;3.00;;
75016;SDS011;63577;39.766;2.720;2023-09-18T11:33:32;10.90;;;3.50;;
75016;SDS011;63577;39.766;2.720;2023-09-18T11:36:02;15.00;;;4.00;;
75016;SDS011;63577;39.766;2.720;2023-09-18T11:38:28;12.30;;;3.10;;
75016;SDS011;63577;39.766;2.720;2023-09-18T11:40:54;11.80;;;2.70;;
75016;SDS011;63577;39.766;2.720;2023-09-18T11:43:20;11.00;;;3.10;;
75016;SDS011;63577;39.766;2.720;2023-09-18T11:45:55;11.10;;;3.60;;
75016;SDS011;63577;39.766;2.720;2023-09-18T11:48:22;11.90;;;3.70;;
75016;SDS011;63577;39.766;2.720;2023-09-18T11:50:49;12.50;;;3.30;;
75016;SDS011;63577;39.766;2.720;2023-09-18T11:53:16;12.00;;;3.40;;
75016;SDS011;63577;39.766;2.720;2023-09-18T11:55:43;13.50;;;4.00;;
75016;SDS011;63577;39.766;2.720;2023-09-18T11:58:09;13.60;;;4.00;;
75016;SDS011;63577;39.766;2.720;2023-09-18T12:00:35;13.40;;;4.00;;
75016;SDS011;63577;39.766;2.720;2023-09-18T12:06:02;14.50;;;3.60;;
75016;SDS011;63577;39.766;2.720;2023-09-18T12:08:30;11.80;;;3.40;;
75016;SDS011;63577;39.766;2.720;2023-09-18T12:10:57;12.30;;;3.20;;
75016;SDS011;63577;39.766;2.720;2023-09-18T12:13:25;10.80;;;3.70;;
75016;SDS011;63577;39.766;2.720;2023-09-18T12:18:17;11.50;;;2.90;;
75016;SDS011;63577;39.766;2.720;2023-09-18T12:20:46;10.30;;;2.90;;
75016;SDS011;63577;39.766;2.720;2023-09-18T12:23:12;11.50;;;2.60;;
75016;SDS011;63577;39.766;2.720;2023-09-18T12:25:38;10.10;;;3.00;;
75016;SDS011;63577;39.766;2.720;2023-09-18T12:28:03;10.10;;;2.80;;
75016;SDS011;63577;39.766;2.720;2023-09-18T12:30:31;12.90;;;2.60;;
75016;SDS011;63577;39.766;2.720;2023-09-18T12:32:57;12.50;;;3.20;;
75016;SDS011;63577;39.766;2.720;2023-09-18T12:35:25;14.40;;;3.30;;
75016;SDS011;63577;39.766;2.720;2023-09-18T12:37:54;12.70;;;3.20;;
75016;SDS011;63577;39.766;2.720;2023-09-18T12:40:21;10.60;;;3.10;;
75016;SDS011;63577;39.766;2.720;2023-09-18T12:42:46;12.40;;;3.20;;
75016;SDS011;63577;39.766;2.720;2023-09-18T12:45:12;8.90;;;3.20;;
75016;SDS011;63577;39.766;2.720;2023-09-18T12:47:37;10.90;;;2.80;;
75016;SDS011;63577;39.766;2.720;2023-09-18T12:50:05;11.10;;;3.10;;
75016;SDS011;63577;39.766;2.720;2023-09-18T12:52:32;10.30;;;3.20;;
75016;SDS011;63577;39.766;2.720;2023-09-18T12:54:58;9.60;;;3.00;;
75016;SDS011;63577;39.766;2.720;2023-09-18T12:57:25;14.60;;;3.10;;
75016;SDS011;63577;39.766;2.720;2023-09-18T12:59:50;11.70;;;3.10;;
75016;SDS011;63577;39.766;2.720;2023-09-18T13:02:17;9.00;;;3.10;;
75016;SDS011;63577;39.766;2.720;2023-09-18T13:04:50;11.70;;;3.00;;
75016;SDS011;63577;39.766;2.720;2023-09-18T13:07:16;10.50;;;2.90;;
75016;SDS011;63577;39.766;2.720;2023-09-18T13:09:42;9.60;;;2.90;;
75016;SDS011;63577;39.766;2.720;2023-09-18T13:12:08;11.00;;;3.10;;
75016;SDS011;63577;39.766;2.720;2023-09-18T13:17:18;10.60;;;3.40;;
75016;SDS011;63577;39.766;2.720;2023-09-18T13:19:44;13.10;;;3.20;;
75016;SDS011;63577;39.766;2.720;2023-09-18T13:22:09;9.20;;;3.20;;
75016;SDS011;63577;39.766;2.720;2023-09-18T13:24:34;9.10;;;3.30;;
75016;SDS011;63577;39.766;2.720;2023-09-18T13:27:00;11.30;;;3.70;;
75016;SDS011;63577;39.766;2.720;2023-09-18T13:29:26;10.40;;;3.10;;
75016;SDS011;63577;39.766;2.720;2023-09-18T13:31:51;14.60;;;3.60;;
75016;SDS011;63577;39.766;2.720;2023-09-18T13:34:17;11.90;;;3.10;;
75016;SDS011;63577;39.766;2.720;2023-09-18T13:36:46;9.00;;;3.10;;
75016;SDS011;63577;39.766;2.720;2023-09-18T13:39:12;11.60;;;3.00;;
75016;SDS011;63577;39.766;2.720;2023-09-18T13:41:38;12.10;;;3.30;;
75016;SDS011;63577;39.766;2.720;2023-09-18T13:44:03;9.00;;;3.50;;
75016;SDS011;63577;39.766;2.720;2023-09-18T13:46:29;11.80;;;2.90;;
75016;SDS011;63577;39.766;2.720;2023-09-18T13:48:54;9.80;;;3.00;;
75016;SDS011;63577;39.766;2.720;2023-09-18T13:51:20;10.60;;;2.40;;
75016;SDS011;63577;39.766;2.720;2023-09-18T13:53:45;8.60;;;2.70;;
75016;SDS011;63577;39.766;2.720;2023-09-18T13:56:13;13.20;;;5.70;;
75016;SDS011;63577;39.766;2.720;2023-09-18T13:58:38;10.40;;;4.20;;
75016;SDS011;63577;39.766;2.720;2023-09-18T14:01:06;11.90;;;3.90;;
75016;SDS011;63577;39.766;2.720;2023-09-18T14:03:32;10.00;;;3.70;;
75016;SDS011;63577;39.766;2.720;2023-09-18T14:05:58;8.80;;;3.80;;
75016;SDS011;63577;39.766;2.720;2023-09-18T14:08:23;12.60;;;3.80;;
75016;SDS011;63577;39.766;2.720;2023-09-18T14:10:49;12.70;;;5.10;;
75016;SDS011;63577;39.766;2.720;2023-09-18T14:13:14;13.00;;;5.30;;
75016;SDS011;63577;39.766;2.720;2023-09-18T14:15:40;9.20;;;4.10;;
75016;SDS011;63577;39.766;2.720;2023-09-18T14:18:05;7.90;;;3.10;;
75016;SDS011;63577;39.766;2.720;2023-09-18T14:20:31;7.70;;;3.30;;
75016;SDS011;63577;39.766;2.720;2023-09-18T14:22:56;8.00;;;3.00;;
75016;SDS011;63577;39.766;2.720;2023-09-18T14:25:22;9.00;;;2.50;;
75016;SDS011;63577;39.766;2.720;2023-09-18T14:27:47;9.30;;;2.60;;
75016;SDS011;63577;39.766;2.720;2023-09-18T14:30:13;7.50;;;2.40;;
75016;SDS011;63577;39.766;2.720;2023-09-18T14:32:38;8.00;;;2.30;;
75016;SDS011;63577;39.766;2.720;2023-09-18T14:35:04;5.40;;;2.20;;
75016;SDS011;63577;39.766;2.720;2023-09-18T14:37:33;9.00;;;2.30;;
75016;SDS011;63577;39.766;2.720;2023-09-18T14:39:58;6.70;;;2.30;;
75016;SDS011;63577;39.766;2.720;2023-09-18T14:42:24;6.50;;;2.40;;
75016;SDS011;63577;39.766;2.720;2023-09-18T14:44:49;5.80;;;2.10;;
75016;SDS011;63577;39.766;2.720;2023-09-18T14:47:15;7.60;;;2.60;;
75016;SDS011;63577;39.766;2.720;2023-09-18T14:49:41;7.70;;;2.30;;
75016;SDS011;63577;39.766;2.720;2023-09-18T14:52:09;7.10;;;2.30;;
75016;SDS011;63577;39.766;2.720;2023-09-18T14:54:34;7.80;;;2.70;;
75016;SDS011;63577;39.766;2.720;2023-09-18T14:56:59;6.90;;;2.40;;
75016;SDS011;63577;39.766;2.720;2023-09-18T14:59:26;8.90;;;3.20;;